Time;durP1;ratioP1;P1;durP2;ratioP2;P2;SDS_P1;SDS_P2;PMS_P1;PMS_P2;Temp;Humidity;BMP_temperature;BMP_pressure;BME280_temperature;BME280_humidity;BME280_pressure;Samples;Min_cycle;Max_cycle;Signal;HPM_P1;HPM_P2
2022/04/15 00:01:21;;;;;;;5.03;2.33;;;11.80;94.60;;;;;;5112072;28;20621;-87
2022/04/15 00:03:49;;;;;;;4.00;2.80;;;11.70;95.30;;;;;;5112305;27;20620;-86
2022/04/15 00:06:16;;;;;;;3.50;3.20;;;11.70;95.10;;;;;;5112182;28;20732;-87
2022/04/15 00:08:44;;;;;;;3.97;3.50;;;11.70;94.70;;;;;;5113789;28;20611;-88
2022/04/15 00:11:12;;;;;;;3.63;3.33;;;11.80;94.60;;;;;;5112575;28;20665;-88
2022/04/15 00:13:41;;;;;;;3.90;3.20;;;11.70;95.00;;;;;;5112568;28;20651;-87
2022/04/15 00:16:11;;;;;;;4.73;2.90;;;11.70;95.20;;;;;;5111118;28;20722;-86
2022/04/15 00:18:39;;;;;;;3.17;2.97;;;11.60;96.90;;;;;;5111613;28;21175;-88
2022/04/15 00:21:07;;;;;;;3.30;3.00;;;11.60;95.20;;;;;;5112244;27;20664;-87
2022/04/15 00:23:35;;;;;;;4.70;3.43;;;11.70;94.90;;;;;;5112444;28;20689;-88
2022/04/15 00:26:04;;;;;;;3.67;3.33;;;11.70;95.10;;;;;;5111603;28;20657;-87
2022/04/15 00:28:32;;;;;;;3.67;3.27;;;11.60;94.90;;;;;;5111742;28;21172;-87
2022/04/15 00:30:59;;;;;;;3.07;2.87;;;11.70;95.40;;;;;;5111896;28;20647;-87
2022/04/15 00:33:27;;;;;;;4.17;3.83;;;11.60;95.80;;;;;;5111544;28;20971;-87
2022/04/15 00:35:55;;;;;;;3.53;3.07;;;11.50;96.10;;;;;;5111223;28;21089;-87
2022/04/15 00:38:22;;;;;;;3.77;3.43;;;11.50;96.20;;;;;;5110719;28;20638;-87
2022/04/15 00:40:49;;;;;;;4.20;3.13;;;11.50;96.10;;;;;;5111772;28;20665;-88
2022/04/15 00:43:16;;;;;;;4.10;3.10;;;11.40;96.00;;;;;;5111357;28;20619;-87
2022/04/15 00:45:43;;;;;;;5.23;3.57;;;11.50;96.30;;;;;;5111394;28;20598;-87
2022/04/15 00:48:12;;;;;;;3.10;2.80;;;11.40;96.10;;;;;;5111884;28;20611;-87
2022/04/15 00:50:39;;;;;;;4.00;3.60;;;11.40;96.70;;;;;;5111306;28;21191;-87
2022/04/15 00:53:11;;;;;;;6.50;4.23;;;11.70;97.40;;;;;;5111920;28;20620;-87
2022/04/15 00:55:40;;;;;;;4.83;3.27;;;11.30;97.50;;;;;;5111937;28;20619;-87
2022/04/15 00:58:08;;;;;;;6.60;3.33;;;11.20;97.60;;;;;;5112024;28;20646;-87
2022/04/15 01:00:36;;;;;;;4.57;3.10;;;11.20;97.90;;;;;;5110797;28;20611;-87
2022/04/15 01:03:05;;;;;;;3.73;3.43;;;11.30;97.40;;;;;;5110742;28;20669;-87
2022/04/15 01:05:32;;;;;;;3.60;3.30;;;;;;;;;;5110622;28;21011;-87
2022/04/15 01:08:02;;;;;;;4.47;4.07;;;11.30;96.90;;;;;;5110960;28;20620;-87
2022/04/15 01:10:36;;;;;;;3.80;3.50;;;11.40;97.40;;;;;;5110453;28;20704;-88
2022/04/15 01:13:07;;;;;;;3.10;2.80;;;11.30;97.70;;;;;;5111360;28;21032;-87
2022/04/15 01:15:35;;;;;;;4.10;3.50;;;11.30;97.90;;;;;;5110604;28;20688;-87
2022/04/15 01:18:02;;;;;;;3.53;3.23;;;;;;;;;;5110661;28;20981;-87
2022/04/15 01:20:30;;;;;;;2.93;2.70;;;11.30;97.80;;;;;;5111009;28;20668;-87
2022/04/15 01:23:05;;;;;;;2.90;2.70;;;11.40;98.00;;;;;;5110443;28;20604;-88
2022/04/15 01:25:33;;;;;;;4.60;2.93;;;11.40;98.30;;;;;;5110272;28;20708;-87
2022/04/15 01:28:00;;;;;;;4.60;3.57;;;11.40;99.90;;;;;;5110961;28;20612;-87
2022/04/15 01:30:27;;;;;;;5.20;3.43;;;11.30;99.00;;;;;;5110889;28;21097;-87
2022/04/15 01:32:55;;;;;;;3.90;3.60;;;11.40;99.20;;;;;;5110451;28;21206;-87
2022/04/15 01:35:23;;;;;;;4.10;3.70;;;11.40;98.80;;;;;;5110404;28;20604;-87
2022/04/15 01:37:51;;;;;;;4.20;3.03;;;11.60;99.90;;;;;;5109743;27;20619;-88
2022/04/15 01:40:19;;;;;;;3.17;2.70;;;11.40;98.10;;;;;;5110440;28;20663;-88
2022/04/15 01:42:48;;;;;;;4.80;3.20;;;11.50;98.70;;;;;;5110755;28;20641;-87
2022/04/15 01:45:15;;;;;;;3.97;3.63;;;11.50;99.10;;;;;;5109660;28;21020;-87
2022/04/15 01:47:43;;;;;;;4.30;3.90;;;;;;;;;;5110238;28;20631;-87
2022/04/15 01:50:10;;;;;;;6.23;4.60;;;11.40;99.40;;;;;;5109696;28;21129;-87
2022/04/15 01:52:37;;;;;;;3.93;3.10;;;11.40;99.90;;;;;;5110348;27;20722;-87
2022/04/15 01:55:06;;;;;;;5.07;3.53;;;11.40;99.90;;;;;;5109923;28;21014;-88
2022/04/15 01:57:34;;;;;;;4.57;3.53;;;11.30;99.90;;;;;;5110381;28;20657;-87
2022/04/15 02:00:01;;;;;;;3.70;3.40;;;11.30;99.90;;;;;;5109714;28;20659;-87
2022/04/15 02:02:28;;;;;;;4.10;3.77;;;11.50;99.90;;;;;;5110037;28;20638;-87
2022/04/15 02:04:55;;;;;;;4.10;3.37;;;11.70;99.90;;;;;;5109607;28;20748;-88
2022/04/15 02:07:22;;;;;;;8.77;3.43;;;11.40;99.80;;;;;;5110434;28;20663;-86
2022/04/15 02:09:49;;;;;;;4.43;3.73;;;11.40;99.90;;;;;;5111155;28;20619;-87
2022/04/15 02:12:16;;;;;;;5.97;3.73;;;11.30;99.90;;;;;;5110062;28;20607;-87
2022/04/15 02:14:46;;;;;;;7.80;3.80;;;11.30;99.80;;;;;;5109676;28;20673;-87
2022/04/15 02:17:13;;;;;;;5.20;3.80;;;11.20;99.90;;;;;;5108822;27;20647;-86
2022/04/15 02:19:39;;;;;;;4.03;3.17;;;11.20;99.90;;;;;;5109516;28;20723;-87
2022/04/15 02:22:06;;;;;;;3.73;3.43;;;11.00;99.90;;;;;;5109544;28;21169;-87
2022/04/15 02:24:33;;;;;;;4.03;3.63;;;11.10;99.90;;;;;;5109629;28;20684;-87
2022/04/15 02:27:00;;;;;;;5.03;3.53;;;11.10;99.90;;;;;;5109026;28;20620;-88
2022/04/15 02:29:27;;;;;;;8.60;3.33;;;11.10;99.90;;;;;;5109772;28;20739;-87
2022/04/15 02:31:55;;;;;;;3.70;3.40;;;11.50;99.90;;;;;;5109490;28;20664;-87
2022/04/15 02:34:22;;;;;;;3.37;3.07;;;11.00;99.90;;;;;;5109464;28;20650;-87
2022/04/15 02:36:49;;;;;;;4.60;3.70;;;11.10;99.90;;;;;;5108817;28;20672;-87
2022/04/15 02:39:16;;;;;;;3.70;3.40;;;11.10;99.90;;;;;;5109434;28;20651;-87
2022/04/15 02:41:43;;;;;;;4.23;3.67;;;12.20;99.90;;;;;;5109093;27;21200;-87
2022/04/15 02:44:11;;;;;;;4.00;3.60;;;11.20;99.90;;;;;;5109106;28;20669;-87
2022/04/15 02:46:37;;;;;;;4.13;3.70;;;11.10;99.90;;;;;;5108663;28;20668;-87
2022/04/15 02:49:06;;;;;;;4.47;3.73;;;11.10;99.90;;;;;;5109280;28;20623;-87
2022/04/15 02:51:36;;;;;;;5.10;3.73;;;11.10;99.90;;;;;;5109138;28;20619;-87
2022/04/15 02:54:03;;;;;;;4.87;4.00;;;11.00;99.90;;;;;;5109518;28;20632;-87
2022/04/15 02:56:29;;;;;;;9.93;4.30;;;11.70;99.90;;;;;;5108809;28;20604;-87
2022/04/15 02:58:56;;;;;;;4.07;3.67;;;11.30;99.90;;;;;;5109351;28;20751;-87
2022/04/15 03:01:23;;;;;;;4.53;3.90;;;11.10;99.90;;;;;;5109461;28;20655;-87
2022/04/15 03:03:50;;;;;;;5.60;4.20;;;11.10;99.90;;;;;;5109275;28;20647;-87
2022/04/15 03:06:18;;;;;;;4.53;4.13;;;11.10;99.90;;;;;;5109207;28;20608;-87
2022/04/15 03:08:45;;;;;;;4.73;3.50;;;11.10;99.90;;;;;;5109563;28;20643;-87
2022/04/15 03:11:12;;;;;;;4.60;4.20;;;11.20;99.90;;;;;;5109790;28;20604;-86
2022/04/15 03:13:39;;;;;;;4.00;3.67;;;11.10;99.90;;;;;;5108777;28;20607;-87
2022/04/15 03:16:06;;;;;;;8.00;3.90;;;11.10;99.90;;;;;;5108223;28;20620;-87
2022/04/15 03:18:33;;;;;;;5.30;4.47;;;11.10;99.90;;;;;;5108575;28;20701;-87
2022/04/15 03:21:00;;;;;;;4.07;3.77;;;11.10;99.90;;;;;;5108579;28;20710;-87
2022/04/15 03:23:29;;;;;;;5.03;4.50;;;11.10;99.90;;;;;;5108495;28;20623;-87
2022/04/15 03:25:56;;;;;;;4.50;4.10;;;10.70;99.90;;;;;;5107141;28;20655;-87
2022/04/15 03:28:23;;;;;;;8.60;3.97;;;11.00;99.90;;;;;;5108729;28;21026;-87
2022/04/15 03:30:50;;;;;;;5.60;4.30;;;11.00;99.90;;;;;;5108767;28;20770;-87
2022/04/15 03:33:17;;;;;;;6.07;4.90;;;11.20;99.90;;;;;;5108554;28;21239;-87
2022/04/15 03:35:44;;;;;;;5.10;4.10;;;11.00;99.90;;;;;;5108318;28;20968;-87
2022/04/15 03:38:11;;;;;;;6.70;4.93;;;11.10;99.90;;;;;;5107889;28;20699;-87
2022/04/15 03:40:39;;;;;;;5.17;4.20;;;11.00;99.90;;;;;;5108183;28;20693;-87
2022/04/15 03:43:06;;;;;;;4.57;3.77;;;10.90;99.90;;;;;;5108608;28;20619;-87
2022/04/15 03:45:33;;;;;;;5.03;4.30;;;10.70;99.90;;;;;;5108181;28;20655;-87
2022/04/15 03:48:00;;;;;;;6.30;4.47;;;;;;;;;;5108393;28;20623;-87
2022/04/15 03:50:27;;;;;;;4.23;3.83;;;10.90;99.90;;;;;;5108331;28;21223;-87
2022/04/15 03:52:56;;;;;;;4.63;4.23;;;10.80;99.90;;;;;;5108470;28;21137;-86
2022/04/15 03:55:24;;;;;;;4.93;3.30;;;10.60;99.90;;;;;;5108167;28;20616;-86
2022/04/15 03:57:52;;;;;;;6.30;4.33;;;10.80;99.90;;;;;;5108611;28;20662;-87
2022/04/15 04:00:21;;;;;;;5.53;4.20;;;10.70;99.90;;;;;;5108093;28;21286;-86
2022/04/15 04:02:49;;;;;;;6.23;4.43;;;10.70;99.90;;;;;;5108267;28;20703;-86
2022/04/15 04:05:16;;;;;;;4.00;3.60;;;10.60;99.90;;;;;;5107722;28;20616;-87
2022/04/15 04:07:44;;;;;;;5.90;4.50;;;10.70;99.90;;;;;;5107603;28;20643;-87
2022/04/15 04:10:12;;;;;;;5.33;4.57;;;10.60;99.90;;;;;;5109707;28;20612;-87
2022/04/15 04:12:39;;;;;;;4.77;4.37;;;10.30;99.90;;;;;;5108477;28;20999;-87
2022/04/15 04:15:08;;;;;;;5.00;4.50;;;10.40;99.90;;;;;;5107871;28;20615;-88
2022/04/15 04:17:35;;;;;;;5.30;4.50;;;10.40;99.90;;;;;;5108130;28;20612;-87
2022/04/15 04:20:03;;;;;;;8.30;5.00;;;10.40;99.90;;;;;;5107602;28;20648;-86
2022/04/15 04:22:31;;;;;;;5.10;4.60;;;10.40;99.90;;;;;;5108515;28;20635;-87
2022/04/15 04:24:58;;;;;;;9.27;4.77;;;10.50;99.90;;;;;;5108668;28;20644;-87
2022/04/15 04:27:25;;;;;;;4.50;4.20;;;10.20;99.90;;;;;;5107469;28;20619;-87
2022/04/15 04:29:52;;;;;;;5.07;4.57;;;10.30;99.90;;;;;;5108326;28;20699;-87
2022/04/15 04:32:21;;;;;;;5.63;5.03;;;10.20;99.90;;;;;;5108089;28;20657;-87
2022/04/15 04:34:48;;;;;;;6.50;5.30;;;;;;;;;;5107982;28;20616;-87
2022/04/15 04:37:15;;;;;;;5.43;4.93;;;10.50;99.90;;;;;;5108914;28;20620;-87
2022/04/15 04:39:43;;;;;;;4.57;4.00;;;;;;;;;;5111909;28;20775;-87
2022/04/15 04:42:10;;;;;;;5.27;4.77;;;10.10;99.90;;;;;;5111570;28;21165;-87
2022/04/15 04:44:39;;;;;;;5.07;4.60;;;11.80;99.90;;;;;;5111792;28;20647;-87
2022/04/15 04:47:07;;;;;;;12.20;5.00;;;9.90;99.90;;;;;;5111302;28;20607;-87
2022/04/15 04:49:36;;;;;;;6.60;4.90;;;9.80;99.90;;;;;;5111822;28;21138;-87
2022/04/15 04:52:04;;;;;;;6.37;5.77;;;10.00;99.90;;;;;;5111245;28;20610;-87
2022/04/15 04:54:31;;;;;;;6.70;5.67;;;10.00;99.90;;;;;;5111364;28;20627;-86
2022/04/15 04:56:58;;;;;;;6.13;5.00;;;10.00;99.90;;;;;;5110945;28;20674;-87
2022/04/15 04:59:26;;;;;;;9.00;5.37;;;10.10;99.90;;;;;;5111183;28;20653;-86
2022/04/15 05:01:53;;;;;;;6.83;5.57;;;10.00;99.90;;;;;;5111117;28;21029;-87
2022/04/15 05:04:20;;;;;;;5.70;5.00;;;10.10;99.90;;;;;;5111270;28;20627;-85
2022/04/15 05:06:50;;;;;;;5.90;5.30;;;10.20;99.90;;;;;;5111114;28;20611;-87
2022/04/15 05:09:16;;;;;;;5.63;4.63;;;10.20;99.90;;;;;;5111397;28;20604;-87
2022/04/15 05:11:43;;;;;;;5.37;4.77;;;10.30;99.90;;;;;;5111400;28;20656;-86
2022/04/15 05:14:10;;;;;;;4.70;4.23;;;10.30;99.90;;;;;;5110809;28;20658;-87
2022/04/15 05:16:37;;;;;;;5.17;4.67;;;10.20;99.90;;;;;;5110937;28;21014;-87
2022/04/15 05:19:04;;;;;;;5.57;4.40;;;10.30;99.90;;;;;;5111754;28;20620;-87
2022/04/15 05:21:31;;;;;;;5.37;4.90;;;10.30;99.90;;;;;;5111437;27;20967;-87
2022/04/15 05:23:59;;;;;;;7.60;5.53;;;10.30;99.90;;;;;;5111178;27;20683;-87
2022/04/15 05:26:28;;;;;;;5.93;5.43;;;10.40;99.90;;;;;;5110741;28;20719;-86
2022/04/15 05:28:55;;;;;;;7.03;5.10;;;10.50;99.90;;;;;;5112451;28;20620;-87
2022/04/15 05:31:22;;;;;;;7.70;6.57;;;10.60;99.90;;;;;;5111197;28;20611;-87
2022/04/15 05:33:49;;;;;;;7.60;5.47;;;10.70;99.90;;;;;;5110576;28;20647;-88
2022/04/15 05:36:16;;;;;;;8.00;5.00;;;10.70;99.90;;;;;;5110387;28;20607;-87
2022/04/15 05:38:43;;;;;;;6.13;5.23;;;10.80;99.90;;;;;;5110211;28;20636;-87
2022/04/15 05:41:11;;;;;;;6.20;5.60;;;11.00;99.90;;;;;;5110098;27;20762;-86
2022/04/15 05:43:38;;;;;;;6.30;5.47;;;10.90;99.90;;;;;;5110306;28;20639;-87
2022/04/15 05:46:05;;;;;;;8.00;5.70;;;11.00;99.90;;;;;;5110320;27;20619;-87
2022/04/15 05:48:32;;;;;;;11.90;5.63;;;11.10;99.90;;;;;;5110089;28;20923;-87
2022/04/15 05:50:59;;;;;;;6.87;6.27;;;11.20;99.90;;;;;;5110353;28;20623;-87
2022/04/15 05:53:26;;;;;;;6.53;5.87;;;11.30;99.90;;;;;;5110352;28;21235;-87
2022/04/15 05:55:52;;;;;;;7.33;6.03;;;11.30;99.90;;;;;;5109258;28;20600;-87
2022/04/15 05:58:21;;;;;;;9.60;6.73;;;11.40;99.90;;;;;;5110209;28;20628;-87
2022/04/15 06:00:48;;;;;;;7.17;6.43;;;11.50;99.90;;;;;;5110119;28;20667;-87
2022/04/15 06:03:14;;;;;;;6.90;6.20;;;11.50;99.90;;;;;;5110100;28;20657;-87
2022/04/15 06:05:41;;;;;;;7.20;6.20;;;11.60;99.90;;;;;;5109083;28;20657;-87
2022/04/15 06:08:08;;;;;;;7.13;6.40;;;11.70;99.90;;;;;;5110073;28;20710;-87
2022/04/15 06:10:35;;;;;;;8.70;7.20;;;12.00;99.90;;;;;;5109162;28;20627;-87
2022/04/15 06:13:06;;;;;;;11.13;7.20;;;11.90;99.90;;;;;;5110211;28;20992;-87
2022/04/15 06:15:35;;;;;;;7.47;6.70;;;12.00;99.90;;;;;;5109396;28;21083;-87
2022/04/15 06:18:03;;;;;;;8.30;7.00;;;11.90;99.90;;;;;;5110325;28;20612;-87
2022/04/15 06:20:30;;;;;;;7.60;6.90;;;12.20;99.90;;;;;;5110035;28;20681;-87
2022/04/15 06:22:57;;;;;;;8.40;7.70;;;12.30;99.90;;;;;;5109220;28;20668;-86
2022/04/15 06:25:24;;;;;;;8.60;7.73;;;12.40;99.90;;;;;;5109123;28;20613;-87
2022/04/15 06:27:51;;;;;;;10.00;7.67;;;12.50;99.90;;;;;;5109865;28;20652;-87
2022/04/15 06:30:21;;;;;;;11.03;8.90;;;12.60;99.90;;;;;;5109589;28;21178;-87
2022/04/15 06:32:50;;;;;;;9.20;8.00;;;12.60;99.80;;;;;;5110069;28;20636;-87
2022/04/15 06:35:17;;;;;;;9.33;8.33;;;12.70;99.50;;;;;;5108783;28;20607;-87
2022/04/15 06:37:43;;;;;;;9.30;7.73;;;12.70;99.50;;;;;;5108283;28;20749;-86
2022/04/15 06:40:12;;;;;;;9.20;8.30;;;12.80;99.30;;;;;;5109169;28;20662;-87
2022/04/15 06:42:39;;;;;;;13.67;9.70;;;12.90;99.20;;;;;;5109209;28;20626;-87
2022/04/15 06:45:06;;;;;;;9.63;8.53;;;13.00;99.40;;;;;;5108997;28;20609;-87
2022/04/15 06:47:33;;;;;;;9.07;8.10;;;13.00;99.00;;;;;;5109201;28;20989;-86
2022/04/15 06:50:02;;;;;;;11.20;8.97;;;13.00;98.80;;;;;;5108982;28;20720;-86
2022/04/15 06:52:28;;;;;;;11.40;7.90;;;13.10;98.80;;;;;;5109360;28;20686;-86
2022/04/15 06:54:55;;;;;;;10.77;8.90;;;13.20;98.90;;;;;;5109083;28;20615;-87
2022/04/15 06:57:22;;;;;;;10.97;9.30;;;13.20;99.10;;;;;;5108415;28;20622;-86
2022/04/15 06:59:49;;;;;;;10.37;9.47;;;13.30;98.70;;;;;;5108362;28;20667;-87
2022/04/15 07:02:16;;;;;;;12.00;9.43;;;13.40;99.90;;;;;;5109026;28;20713;-86
2022/04/15 07:04:43;;;;;;;10.63;9.03;;;13.50;98.40;;;;;;5108496;28;20722;-87
2022/04/15 07:07:11;;;;;;;11.50;7.47;;;13.60;98.40;;;;;;5108570;28;20614;-86
2022/04/15 07:09:38;;;;;;;10.40;8.87;;;13.70;97.90;;;;;;5108825;28;20619;-86
2022/04/15 07:12:06;;;;;;;10.47;8.00;;;13.80;97.70;;;;;;5109150;28;20636;-86
2022/04/15 07:14:33;;;;;;;11.47;10.00;;;13.90;97.20;;;;;;5108829;28;21260;-86
2022/04/15 07:17:00;;;;;;;11.43;10.23;;;13.90;97.00;;;;;;5108196;28;20627;-86
2022/04/15 07:19:28;;;;;;;13.23;11.43;;;13.90;96.80;;;;;;5108748;28;20644;-87
2022/04/15 07:21:57;;;;;;;15.80;12.33;;;14.10;96.60;;;;;;5108948;28;20705;-87
2022/04/15 07:24:27;;;;;;;13.07;11.03;;;14.10;95.40;;;;;;5108899;28;20619;-86
2022/04/15 07:26:54;;;;;;;14.57;11.40;;;14.10;95.30;;;;;;5108399;28;20720;-86
2022/04/15 07:29:21;;;;;;;14.00;12.50;;;14.10;95.00;;;;;;5108667;28;20823;-85
2022/04/15 07:31:48;;;;;;;14.60;12.30;;;14.20;95.10;;;;;;5108499;28;20623;-86
2022/04/15 07:34:14;;;;;;;12.93;11.30;;;14.40;95.20;;;;;;5109064;28;20738;-86
2022/04/15 07:36:48;;;;;;;18.27;13.90;;;14.40;95.00;;;;;;5107337;28;20677;-87
2022/04/15 07:39:15;;;;;;;16.07;12.47;;;14.40;93.90;;;;;;5109039;28;20688;-86
2022/04/15 07:41:45;;;;;;;15.33;13.63;;;14.50;94.10;;;;;;5108422;28;20691;-86
2022/04/15 07:44:13;;;;;;;15.00;13.17;;;14.60;93.50;;;;;;5108554;28;21056;-86
2022/04/15 07:46:41;;;;;;;13.87;12.50;;;14.70;93.60;;;;;;5108258;28;20654;-86
2022/04/15 07:49:08;;;;;;;15.27;13.63;;;15.00;93.70;;;;;;5109056;28;20619;-86
2022/04/15 07:51:36;;;;;;;16.67;14.13;;;15.10;93.00;;;;;;5109396;28;20723;-85
2022/04/15 07:54:04;;;;;;;15.57;13.50;;;15.40;92.80;;;;;;5109987;28;20682;-86
2022/04/15 07:56:31;;;;;;;16.00;12.80;;;15.50;92.70;;;;;;5107617;28;20694;-86
2022/04/15 07:58:59;;;;;;;14.93;13.30;;;15.70;92.40;;;;;;5107767;28;20727;-85
2022/04/15 08:01:27;;;;;;;14.00;12.60;;;15.90;91.50;;;;;;5108419;28;20776;-86
2022/04/15 08:03:54;;;;;;;15.30;13.80;;;16.00;91.00;;;;;;5108384;28;20625;-86
2022/04/15 08:06:22;;;;;;;16.73;13.50;;;16.10;90.70;;;;;;5107502;28;20952;-85
2022/04/15 08:08:49;;;;;;;15.73;12.43;;;16.20;90.30;;;;;;5108231;28;20661;-86
2022/04/15 08:11:16;;;;;;;14.17;12.77;;;16.30;90.40;;;;;;5110120;28;20624;-85
2022/04/15 08:13:43;;;;;;;15.27;13.53;;;16.40;89.90;;;;;;5111923;28;21405;-86
2022/04/15 08:16:11;;;;;;;16.67;15.07;;;16.70;89.30;;;;;;5111682;28;20618;-85
2022/04/15 08:18:38;;;;;;;15.63;13.20;;;16.60;88.30;;;;;;5111972;28;20618;-85
2022/04/15 08:21:05;;;;;;;14.43;12.93;;;16.70;87.30;;;;;;5112286;28;20983;-86
2022/04/15 08:23:32;;;;;;;14.87;13.00;;;16.80;86.90;;;;;;5111824;28;21175;-86
2022/04/15 08:25:59;;;;;;;17.27;13.30;;;16.80;87.60;;;;;;5110900;28;20722;-86
2022/04/15 08:28:26;;;;;;;16.23;14.00;;;16.80;87.00;;;;;;5112706;28;20672;-86
2022/04/15 08:30:53;;;;;;;16.20;13.50;;;16.70;87.40;;;;;;5111956;28;20611;-86
2022/04/15 08:33:22;;;;;;;15.17;13.67;;;16.70;86.20;;;;;;5112330;28;20717;-86
2022/04/15 08:35:49;;;;;;;14.60;13.10;;;16.50;85.50;;;;;;5109742;28;20632;-86
2022/04/15 08:38:16;;;;;;;14.57;13.13;;;16.30;86.90;;;;;;5111004;28;20688;-86
2022/04/15 08:40:46;;;;;;;13.73;12.23;;;16.30;87.50;;;;;;5111063;28;20716;-86
2022/04/15 08:43:13;;;;;;;15.77;14.17;;;16.70;89.50;;;;;;5111620;28;20659;-86
2022/04/15 08:45:42;;;;;;;16.33;14.07;;;16.70;88.00;;;;;;5110863;28;20644;-85
2022/04/15 08:48:10;;;;;;;16.83;13.00;;;16.90;87.20;;;;;;5111550;28;20622;-86
2022/04/15 08:50:39;;;;;;;18.77;13.63;;;17.10;86.40;;;;;;5111623;28;20651;-86
2022/04/15 08:53:07;;;;;;;16.63;14.80;;;16.80;85.60;;;;;;5110829;28;20672;-85
2022/04/15 08:55:34;;;;;;;17.23;14.73;;;17.10;83.80;;;;;;5110548;28;21061;-85
2022/04/15 08:58:00;;;;;;;15.07;13.47;;;17.50;84.70;;;;;;5110854;28;21254;-85
2022/04/15 09:00:28;;;;;;;18.90;13.37;;;17.80;83.80;;;;;;5111106;28;20668;-86
2022/04/15 09:02:56;;;;;;;18.30;14.87;;;17.80;82.30;;;;;;5111243;28;20620;-85
2022/04/15 09:05:26;;;;;;;16.97;15.43;;;17.60;80.20;;;;;;5110286;28;20648;-84
2022/04/15 09:08:05;;;;;;;18.07;14.87;;;17.90;81.00;;;;;;5110564;28;21217;-86
2022/04/15 09:10:33;;;;;;;17.33;15.43;;;17.70;80.70;;;;;;5111312;28;20619;-86
2022/04/15 09:13:01;;;;;;;15.57;14.07;;;16.80;83.10;;;;;;5111004;28;20913;-86
2022/04/15 09:15:28;;;;;;;16.33;14.63;;;17.00;79.30;;;;;;5110255;28;20630;-85
2022/04/15 09:17:55;;;;;;;17.13;15.43;;;16.90;78.20;;;;;;5110843;28;21057;-86
2022/04/15 09:20:23;;;;;;;17.03;15.27;;;16.80;79.20;;;;;;5110991;28;20622;-86
2022/04/15 09:22:55;;;;;;;17.20;15.50;;;16.90;79.60;;;;;;5110240;28;20981;-86
2022/04/15 09:25:30;;;;;;;17.73;16.03;;;16.80;78.50;;;;;;5110122;28;20634;-86
2022/04/15 09:27:58;;;;;;;17.40;15.50;;;16.90;78.50;;;;;;5110859;28;20615;-86
2022/04/15 09:30:35;;;;;;;16.57;14.87;;;17.30;81.10;;;;;;5110760;28;20668;-85
2022/04/15 09:33:03;;;;;;;18.93;15.43;;;17.60;81.50;;;;;;5110943;28;20658;-85
2022/04/15 09:35:31;;;;;;;15.47;13.97;;;17.60;76.00;;;;;;5109990;28;20660;-86
2022/04/15 09:38:03;;;;;;;18.13;16.43;;;17.70;77.40;;;;;;5109271;28;20727;-86
2022/04/15 09:40:35;;;;;;;19.60;17.50;;;18.10;79.80;;;;;;5110479;28;20628;-85
2022/04/15 09:43:04;;;;;;;18.67;16.90;;;18.40;78.60;;;;;;5109938;28;20704;-86
2022/04/15 09:45:34;;;;;;;18.60;15.70;;;18.20;76.60;;;;;;5109773;28;20702;-86
2022/04/15 09:48:02;;;;;;;17.10;15.20;;;17.90;75.00;;;;;;5110898;28;20714;-86
2022/04/15 09:50:30;;;;;;;19.50;16.47;;;17.40;75.30;;;;;;5110549;28;20669;-85
2022/04/15 09:53:08;;;;;;;18.00;16.20;;;17.20;77.70;;;;;;5110842;28;20684;-86
2022/04/15 09:55:39;;;;;;;15.13;13.73;;;17.40;78.70;;;;;;5110492;28;20708;-86
2022/04/15 09:58:09;;;;;;;16.20;14.60;;;17.60;78.10;;;;;;5110868;28;20615;-87
2022/04/15 10:00:36;;;;;;;16.87;15.10;;;17.80;75.00;;;;;;5109986;28;21235;-86
2022/04/15 10:03:07;;;;;;;16.40;14.97;;;17.80;75.30;;;;;;5110150;28;20619;-86
2022/04/15 10:05:34;;;;;;;15.30;13.77;;;17.90;76.00;;;;;;5109200;28;20705;-86
2022/04/15 10:08:03;;;;;;;14.00;12.60;;;17.90;76.30;;;;;;5109239;28;20623;-86
2022/04/15 10:10:31;;;;;;;13.77;12.47;;;18.20;72.90;;;;;;5110016;28;20616;-85
2022/04/15 10:13:03;;;;;;;14.33;13.10;;;18.30;72.20;;;;;;5109825;28;20626;-86
2022/04/15 10:15:31;;;;;;;14.77;13.47;;;18.50;74.10;;;;;;5109355;28;20619;-86
2022/04/15 10:17:59;;;;;;;10.50;9.60;;;18.30;72.30;;;;;;5109764;28;20620;-85
2022/04/15 10:20:27;;;;;;;14.10;12.70;;;17.90;72.20;;;;;;5109232;28;20726;-85
2022/04/15 10:22:55;;;;;;;12.73;11.40;;;18.00;69.20;;;;;;5110095;28;21066;-86
2022/04/15 10:25:22;;;;;;;15.40;13.27;;;18.20;70.40;;;;;;5109016;28;20625;-85
2022/04/15 10:27:50;;;;;;;15.00;13.60;;;18.30;71.00;;;;;;5109989;28;20607;-86
2022/04/15 10:30:20;;;;;;;14.40;13.03;;;18.60;71.00;;;;;;5109218;28;20659;-86
2022/04/15 10:32:53;;;;;;;14.60;13.00;;;18.50;69.60;;;;;;5109599;28;20624;-86
2022/04/15 10:35:24;;;;;;;14.50;11.37;;;18.80;70.00;;;;;;5108837;28;20611;-86
2022/04/15 10:37:56;;;;;;;15.80;13.80;;;19.10;71.30;;;;;;5108532;28;20695;-86
2022/04/15 10:40:25;;;;;;;14.30;12.90;;;18.60;70.40;;;;;;5109321;28;20699;-86
2022/04/15 10:42:52;;;;;;;10.67;9.67;;;18.30;69.20;;;;;;5109100;28;20659;-86
2022/04/15 10:45:34;;;;;;;12.03;10.73;;;18.30;71.60;;;;;;5108496;28;20612;-86
2022/04/15 10:48:02;;;;;;;11.93;9.33;;;18.60;69.00;;;;;;5109596;28;20643;-86
2022/04/15 10:50:30;;;;;;;10.00;9.10;;;18.70;67.60;;;;;;5109207;28;20634;-85
2022/04/15 10:53:29;;;;;;;10.37;9.37;;;19.00;71.30;;;;;;5109622;28;20688;-86
2022/04/15 10:56:07;;;;;;;10.87;9.97;;;18.50;72.50;;;;;;5108115;28;20706;-85
2022/04/15 11:01:13;;;;;;;13.00;10.30;;;18.50;68.10;;;;;;5108931;28;21232;-86
2022/04/15 11:01:50;;;;;;;11.90;10.70;;;18.40;69.70;;;;;;5108909;28;20699;-86
2022/04/15 11:04:24;;;;;;;13.17;11.80;;;18.30;75.30;;;;;;5108330;28;20685;-85
2022/04/15 11:06:52;;;;;;;10.53;9.40;;;18.60;72.80;;;;;;5108398;28;20618;-86
2022/04/15 11:09:22;;;;;;;8.73;7.93;;;18.80;67.80;;;;;;5109199;27;20648;-86
2022/04/15 11:11:51;;;;;;;11.30;10.20;;;19.10;67.30;;;;;;5109173;28;20616;-86
2022/04/15 11:14:19;;;;;;;11.10;9.90;;;19.00;66.30;;;;;;5109129;28;20668;-85
2022/04/15 11:16:52;;;;;;;13.37;12.13;;;19.10;67.60;;;;;;5107652;28;20649;-85
2022/04/15 11:19:24;;;;;;;13.80;11.50;;;18.80;68.20;;;;;;5109091;28;20623;-86
2022/04/15 11:21:53;;;;;;;11.10;9.97;;;18.50;68.40;;;;;;5108788;28;20652;-86
2022/04/15 11:24:25;;;;;;;11.60;10.40;;;18.50;68.50;;;;;;5109003;28;20616;-86
2022/04/15 11:26:58;;;;;;;13.20;12.00;;;18.40;68.80;;;;;;5108184;28;20623;-86
2022/04/15 11:29:30;;;;;;;12.07;10.93;;;18.60;71.40;;;;;;5108551;28;20711;-85
2022/04/15 11:32:05;;;;;;;11.37;10.27;;;19.00;69.20;;;;;;5108914;28;20726;-85
2022/04/15 11:34:32;;;;;;;9.20;8.30;;;19.20;67.30;;;;;;5108927;28;20626;-85
2022/04/15 11:37:03;;;;;;;10.77;9.77;;;18.90;65.30;;;;;;5107191;28;20704;-86
2022/04/15 11:39:29;;;;;;;9.60;7.03;;;18.60;64.50;;;;;;5108541;28;20702;-86
2022/04/15 11:41:57;;;;;;;13.27;7.57;;;18.70;64.40;;;;;;5108046;28;20758;-86
2022/04/15 11:44:30;;;;;;;9.57;7.60;;;19.30;64.10;;;;;;5108848;28;20630;-86
2022/04/15 11:47:15;;;;;;;8.77;7.90;;;19.80;63.40;;;;;;5111601;28;20623;-86
2022/04/15 11:49:44;;;;;;;9.23;8.33;;;19.90;60.50;;;;;;5112757;28;20995;-86
2022/04/15 11:52:20;;;;;;;9.47;8.67;;;20.40;67.90;;;;;;5112483;28;20655;-85
2022/04/15 11:54:47;;;;;;;13.93;10.50;;;20.60;63.30;;;;;;5112968;28;20630;-86
2022/04/15 11:57:14;;;;;;;14.33;10.10;;;21.50;60.90;;;;;;5112489;28;21062;-87
2022/04/15 11:59:42;;;;;;;9.40;8.50;;;21.70;59.80;;;;;;5113481;28;20641;-87
2022/04/15 12:02:10;;;;;;;9.50;8.60;;;22.20;60.10;;;;;;5113295;28;20764;-86
2022/04/15 12:04:37;;;;;;;11.10;9.90;;;22.60;58.20;;;;;;5112479;28;21264;-87
2022/04/15 12:07:15;;;;;;;10.40;9.50;;;21.80;57.70;;;;;;5111788;28;20616;-87
2022/04/15 12:09:45;;;;;;;9.93;8.97;;;21.50;58.10;;;;;;5112098;28;20623;-86
2022/04/15 12:12:12;;;;;;;9.97;9.10;;;21.00;58.10;;;;;;5112599;28;20664;-86
2022/04/15 12:14:41;;;;;;;9.00;8.20;;;20.60;59.40;;;;;;5112122;28;20685;-87
2022/04/15 12:17:09;;;;;;;8.33;7.60;;;21.00;59.50;;;;;;5111116;28;21078;-86
2022/04/15 12:19:37;;;;;;;8.23;7.50;;;21.90;56.50;;;;;;5112121;28;21064;-87
2022/04/15 12:22:04;;;;;;;7.33;6.63;;;22.20;53.40;;;;;;5112560;28;20647;-87
2022/04/15 12:24:32;;;;;;;8.50;7.80;;;22.50;54.00;;;;;;5112238;28;20707;-86
2022/04/15 12:27:01;;;;;;;8.13;7.33;;;22.20;54.10;;;;;;5111758;28;21048;-86
2022/04/15 12:32:15;;;;;;;6.70;6.13;;;21.70;54.90;;;;;;5112008;28;20940;-87
2022/04/15 12:34:43;;;;;;;6.53;5.93;;;21.50;55.30;;;;;;5111981;28;20710;-87
2022/04/15 12:37:32;;;;;;;6.30;5.80;;;21.10;54.10;;;;;;5110111;28;20623;-86
2022/04/15 12:40:00;;;;;;;8.57;7.87;;;21.10;54.40;;;;;;5111174;28;20626;-86
2022/04/15 12:42:28;;;;;;;8.53;7.73;;;21.20;55.80;;;;;;5111829;28;20651;-86
2022/04/15 12:44:55;;;;;;;11.43;10.27;;;21.20;56.80;;;;;;5111655;28;20726;-87
2022/04/15 12:47:25;;;;;;;10.90;9.90;;;21.70;56.10;;;;;;5110994;27;20668;-87
2022/04/15 12:49:52;;;;;;;8.97;8.17;;;21.40;55.10;;;;;;5111476;28;20672;-87